createdAt,value
2023-03-06T00:01:55.511Z,53.53
2023-03-06T00:04:22.119Z,53.06
2023-03-06T00:06:48.759Z,51.26
2023-03-06T00:09:15.265Z,51.89
2023-03-06T00:11:41.785Z,52.34
2023-03-06T00:14:08.271Z,52.39
2023-03-06T00:16:34.943Z,51.25
2023-03-06T00:19:01.492Z,51.62
2023-03-06T00:21:28.028Z,51.70
2023-03-06T00:23:54.726Z,51.71
2023-03-06T00:26:21.286Z,51.39
2023-03-06T00:28:47.834Z,51.67
2023-03-06T00:31:14.452Z,51.68
2023-03-06T00:33:41.030Z,51.88
2023-03-06T00:36:07.915Z,52.25
2023-03-06T00:38:35.610Z,52.77
2023-03-06T00:41:10.565Z,52.90
2023-03-06T00:43:37.525Z,52.41
2023-03-06T00:46:04.247Z,52.96
2023-03-06T00:48:30.951Z,52.96
2023-03-06T00:50:57.528Z,51.67
2023-03-06T00:53:25.680Z,52.35
2023-03-06T00:55:52.258Z,52.29
2023-03-06T00:58:19.006Z,51.61
2023-03-06T01:00:45.575Z,51.45
2023-03-06T01:03:12.225Z,51.36
2023-03-06T01:05:39.339Z,51.14
2023-03-06T01:08:06.452Z,51.35
2023-03-06T01:10:33.669Z,51.50
2023-03-06T01:13:00.227Z,51.45
2023-03-06T01:15:26.765Z,50.41
2023-03-06T01:17:54.543Z,51.09
2023-03-06T01:20:22.385Z,50.92
2023-03-06T01:22:48.933Z,50.59
2023-03-06T01:25:15.548Z,50.86
2023-03-06T01:27:42.138Z,50.10
2023-03-06T01:30:09.470Z,50.42
2023-03-06T01:32:36.006Z,49.67
2023-03-06T01:35:03.870Z,49.08
2023-03-06T01:37:30.457Z,49.48
2023-03-06T01:39:57.024Z,49.32
2023-03-06T01:42:23.717Z,49.25
2023-03-06T01:45:05.742Z,48.89
2023-03-06T01:47:32.295Z,48.88
2023-03-06T01:50:01.375Z,49.11
2023-03-06T01:52:33.502Z,49.07
2023-03-06T01:55:08.594Z,49.41
2023-03-06T01:57:47.219Z,47.98
2023-03-06T02:00:18.731Z,48.66
2023-03-06T02:02:50.227Z,48.90
2023-03-06T02:05:17.039Z,49.17
2023-03-06T02:07:45.402Z,49.37
2023-03-06T02:10:13.288Z,49.45
2023-03-06T02:12:43.710Z,49.96
2023-03-06T02:15:13.029Z,50.38
2023-03-06T02:17:41.689Z,50.71
2023-03-06T02:20:08.214Z,50.55
2023-03-06T02:22:43.514Z,50.72
2023-03-06T02:25:30.381Z,50.74
2023-03-06T02:27:56.963Z,51.24
2023-03-06T02:30:26.747Z,51.16
2023-03-06T02:32:53.512Z,50.76
2023-03-06T02:35:25.447Z,50.81
2023-03-06T02:37:53.285Z,50.59
2023-03-06T02:40:23.105Z,51.04
2023-03-06T02:42:55.424Z,51.20
2023-03-06T02:45:35.886Z,51.06
2023-03-06T02:48:03.364Z,51.53
2023-03-06T02:50:31.045Z,51.52
2023-03-06T02:52:58.233Z,51.46
2023-03-06T02:55:25.020Z,51.45
2023-03-06T02:57:51.694Z,51.67
2023-03-06T03:00:19.250Z,51.84
2023-03-06T03:02:46.017Z,52.09
2023-03-06T03:05:12.615Z,52.27
2023-03-06T03:07:39.146Z,51.94
2023-03-06T03:10:06.235Z,52.14
2023-03-06T03:12:33.479Z,52.75
2023-03-06T03:15:00.013Z,52.43
2023-03-06T03:17:26.686Z,52.49
2023-03-06T03:19:53.416Z,52.70
2023-03-06T03:22:20.490Z,51.53
2023-03-06T03:24:47.672Z,52.03
2023-03-06T03:27:14.547Z,51.90
2023-03-06T03:29:41.408Z,51.58
2023-03-06T03:32:08.198Z,51.92
2023-03-06T03:34:34.834Z,52.16
2023-03-06T03:37:01.587Z,52.29
2023-03-06T03:39:28.208Z,52.91
2023-03-06T03:41:54.880Z,52.64
2023-03-06T03:44:21.401Z,53.43
2023-03-06T03:46:48.036Z,53.16
2023-03-06T03:49:15.272Z,53.50
2023-03-06T03:51:41.827Z,53.51
2023-03-06T03:54:08.458Z,53.46
2023-03-06T03:56:35.179Z,54.00
2023-03-06T03:59:01.938Z,53.74
2023-03-06T04:01:28.489Z,53.88
2023-03-06T04:03:55.107Z,53.79
2023-03-06T04:06:21.673Z,53.73
2023-03-06T04:08:48.260Z,53.55
2023-03-06T04:11:15.183Z,53.83
2023-03-06T04:13:41.750Z,53.27
2023-03-06T04:16:08.488Z,53.32
2023-03-06T04:18:35.249Z,53.59
2023-03-06T04:21:01.851Z,53.49
2023-03-06T04:23:28.790Z,53.63
2023-03-06T04:25:55.504Z,53.35
2023-03-06T04:28:22.083Z,53.58
2023-03-06T04:30:48.596Z,53.28
2023-03-06T04:33:16.492Z,53.24
2023-03-06T04:35:43.130Z,53.61
2023-03-06T04:38:09.973Z,53.72
2023-03-06T04:40:36.977Z,53.78
2023-03-06T04:43:04.175Z,53.83
2023-03-06T04:45:32.339Z,53.74
2023-03-06T04:47:59.558Z,54.33
2023-03-06T04:50:28.158Z,53.92
2023-03-06T04:52:54.743Z,54.51
2023-03-06T04:55:21.416Z,53.89
2023-03-06T04:57:48.381Z,54.49
2023-03-06T05:00:19.277Z,54.55
2023-03-06T05:02:46.304Z,54.50
2023-03-06T05:05:14.349Z,54.76
2023-03-06T05:07:42.367Z,54.13
2023-03-06T05:10:12.725Z,54.72
2023-03-06T05:12:39.578Z,54.82
2023-03-06T05:15:08.203Z,54.69
2023-03-06T05:17:35.039Z,55.27
2023-03-06T05:20:01.627Z,54.93
2023-03-06T05:22:28.238Z,55.24
2023-03-06T05:24:54.838Z,55.28
2023-03-06T05:27:21.402Z,55.00
2023-03-06T05:29:48.005Z,55.26
2023-03-06T05:32:16.189Z,55.21
2023-03-06T05:34:43.024Z,55.51
2023-03-06T05:37:09.666Z,55.26
2023-03-06T05:39:36.214Z,55.43
2023-03-06T05:42:03.108Z,55.14
2023-03-06T05:44:33.858Z,55.56
2023-03-06T05:47:00.466Z,55.57
2023-03-06T05:49:31.479Z,55.74
2023-03-06T05:51:58.165Z,55.43
2023-03-06T05:54:26.214Z,55.76
2023-03-06T05:56:52.773Z,55.51
2023-03-06T05:59:19.355Z,55.90
2023-03-06T06:01:45.996Z,55.79
2023-03-06T06:04:12.534Z,55.79
2023-03-06T06:06:39.076Z,55.54
2023-03-06T06:09:05.631Z,55.62
2023-03-06T06:11:32.184Z,56.15
2023-03-06T06:13:58.746Z,55.96
2023-03-06T06:16:25.298Z,55.93
2023-03-06T06:18:51.833Z,56.00
2023-03-06T06:21:18.364Z,56.29
2023-03-06T06:23:44.992Z,56.10
2023-03-06T06:26:11.864Z,56.13
2023-03-06T06:28:38.398Z,55.85
2023-03-06T06:31:10.726Z,55.86
2023-03-06T06:33:37.538Z,55.94
2023-03-06T06:36:04.418Z,55.80
2023-03-06T06:38:30.968Z,55.78
2023-03-06T06:41:30.606Z,55.88
2023-03-06T06:43:44.047Z,56.17
2023-03-06T06:46:44.613Z,56.02
2023-03-06T06:48:57.069Z,56.12
2023-03-06T06:51:23.717Z,55.67
2023-03-06T06:53:53.311Z,55.98
2023-03-06T06:56:19.833Z,55.28
2023-03-06T06:58:46.410Z,55.37
2023-03-06T07:01:13.690Z,55.26
2023-03-06T07:03:40.933Z,55.62
2023-03-06T07:06:08.269Z,55.22
2023-03-06T07:08:35.208Z,55.34
2023-03-06T07:11:07.852Z,55.44
2023-03-06T07:13:35.167Z,55.26
2023-03-06T07:16:02.007Z,55.14
2023-03-06T07:18:28.632Z,54.88
2023-03-06T07:20:55.910Z,55.16
2023-03-06T07:23:23.345Z,54.95
2023-03-06T07:25:50.661Z,55.01
2023-03-06T07:28:18.654Z,54.25
2023-03-06T07:31:03.394Z,54.62
2023-03-06T07:36:19.441Z,54.84
2023-03-06T07:38:46.005Z,54.90
2023-03-06T07:41:14.500Z,54.71
2023-03-06T07:43:41.848Z,54.65
2023-03-06T07:46:09.191Z,54.88
2023-03-06T07:48:36.791Z,54.77
2023-03-06T07:51:07.177Z,54.69
2023-03-06T07:53:34.496Z,55.07
2023-03-06T07:56:01.434Z,54.60
2023-03-06T07:58:27.991Z,54.47
2023-03-06T08:00:54.830Z,54.67
2023-03-06T08:03:21.385Z,54.78
2023-03-06T08:05:47.935Z,55.35
2023-03-06T08:08:14.677Z,55.32
2023-03-06T08:10:41.275Z,56.55
2023-03-06T08:13:07.838Z,57.74
2023-03-06T08:15:34.363Z,58.40
2023-03-06T08:18:00.884Z,58.63
2023-03-06T08:20:27.550Z,58.50
2023-03-06T08:22:54.124Z,59.39
2023-03-06T08:25:20.661Z,59.12
2023-03-06T08:27:47.467Z,59.95
2023-03-06T08:30:14.832Z,60.46
2023-03-06T08:32:41.494Z,60.74
2023-03-06T08:35:08.506Z,61.08
2023-03-06T08:37:35.149Z,61.34
2023-03-06T08:40:04.570Z,60.29
2023-03-06T08:42:32.262Z,60.67
2023-03-06T08:44:58.886Z,61.66
2023-03-06T08:47:25.748Z,61.29
2023-03-06T08:49:52.469Z,60.53
2023-03-06T08:52:19.914Z,59.73
2023-03-06T08:54:46.632Z,60.49
2023-03-06T08:57:13.172Z,59.70
2023-03-06T08:59:39.752Z,58.14
2023-03-06T09:02:07.681Z,57.86
2023-03-06T09:04:34.570Z,57.71
2023-03-06T09:07:01.516Z,57.37
2023-03-06T09:09:28.076Z,57.16
2023-03-06T09:11:55.072Z,56.70
2023-03-06T09:14:22.032Z,56.91
2023-03-06T09:16:48.639Z,55.91
2023-03-06T09:19:15.228Z,55.92
2023-03-06T09:21:42.143Z,55.98
2023-03-06T09:24:08.960Z,55.36
2023-03-06T09:26:45.590Z,54.97
2023-03-06T09:29:13.771Z,54.32
2023-03-06T09:31:40.502Z,54.62
2023-03-06T09:34:07.026Z,54.65
2023-03-06T09:36:45.674Z,54.71
2023-03-06T09:39:20.135Z,54.57
2023-03-06T09:41:49.632Z,54.12
2023-03-06T09:44:21.407Z,54.23
2023-03-06T09:47:03.551Z,53.92
2023-03-06T09:49:48.413Z,54.30
2023-03-06T09:52:30.132Z,53.65
2023-03-06T09:55:14.956Z,54.02
2023-03-06T09:57:52.362Z,53.81
2023-03-06T10:00:50.781Z,53.55
2023-03-06T10:03:33.053Z,53.29
2023-03-06T10:06:15.546Z,52.91
2023-03-06T10:09:00.809Z,53.06
2023-03-06T10:11:47.217Z,53.27
2023-03-06T10:14:21.498Z,53.33
2023-03-06T10:16:48.111Z,53.30
2023-03-06T10:19:20.325Z,53.29
2023-03-06T10:21:46.854Z,53.28
2023-03-06T10:24:19.405Z,52.95
2023-03-06T10:26:55.078Z,52.59
2023-03-06T10:29:24.326Z,52.17
2023-03-06T10:32:01.318Z,52.15
2023-03-06T10:34:36.355Z,51.31
2023-03-06T10:37:17.700Z,51.84
2023-03-06T10:39:44.219Z,51.78
2023-03-06T10:42:10.844Z,51.31
2023-03-06T10:44:37.497Z,51.17
2023-03-06T10:47:35.246Z,51.54
2023-03-06T10:50:08.038Z,51.20
2023-03-06T10:52:36.074Z,50.68
2023-03-06T10:55:26.933Z,51.07
2023-03-06T10:57:53.783Z,51.22
2023-03-06T11:00:32.954Z,51.02
2023-03-06T11:03:24.585Z,49.77
2023-03-06T11:06:35.087Z,48.87
2023-03-06T11:09:20.659Z,49.23
2023-03-06T11:11:47.338Z,50.00
2023-03-06T11:14:17.687Z,50.37
2023-03-06T11:16:53.567Z,50.26
2023-03-06T11:19:28.020Z,50.10
2023-03-06T11:22:10.903Z,50.52
2023-03-06T11:24:43.554Z,50.95
2023-03-06T11:27:34.984Z,50.46
2023-03-06T11:30:15.259Z,52.06
2023-03-06T11:32:57.568Z,51.47
2023-03-06T11:35:30.888Z,51.61
2023-03-06T11:38:04.297Z,51.54
2023-03-06T11:40:45.541Z,51.84
2023-03-06T11:43:49.830Z,50.96
2023-03-06T11:46:24.823Z,52.01
2023-03-06T11:48:58.219Z,51.72
2023-03-06T11:51:29.156Z,51.62
2023-03-06T11:53:59.942Z,52.53
2023-03-06T11:56:35.731Z,52.35
2023-03-06T11:59:26.083Z,51.67
2023-03-06T12:02:04.231Z,51.38
2023-03-06T12:04:39.927Z,52.40
2023-03-06T12:07:30.548Z,51.22
2023-03-06T12:10:10.252Z,51.80
2023-03-06T12:12:58.657Z,51.72
2023-03-06T12:15:36.954Z,51.60
2023-03-06T12:18:22.232Z,51.07
2023-03-06T12:21:04.060Z,51.07
2023-03-06T12:23:42.961Z,53.05
2023-03-06T12:26:21.952Z,52.52
2023-03-06T12:29:02.701Z,52.14
2023-03-06T12:31:43.834Z,52.24
2023-03-06T12:34:28.571Z,51.89
2023-03-06T12:37:20.914Z,51.93
2023-03-06T12:40:10.015Z,52.74
2023-03-06T12:43:18.712Z,52.62
2023-03-06T12:45:46.862Z,53.56
2023-03-06T12:48:21.191Z,54.01
2023-03-06T12:50:48.956Z,54.06
2023-03-06T12:53:30.573Z,53.52
2023-03-06T12:55:58.886Z,52.95
2023-03-06T12:58:28.361Z,52.99
2023-03-06T13:01:20.118Z,53.31
2023-03-06T13:04:20.232Z,53.95
2023-03-06T13:07:01.981Z,54.02
2023-03-06T13:09:38.871Z,53.82
2023-03-06T13:12:14.632Z,53.91
2023-03-06T13:14:48.698Z,53.56
2023-03-06T13:17:20.576Z,53.03
2023-03-06T13:19:48.225Z,53.50
2023-03-06T13:22:35.059Z,53.28
2023-03-06T13:25:20.037Z,52.79
2023-03-06T13:27:53.117Z,53.88
2023-03-06T13:30:22.748Z,52.90
2023-03-06T13:32:52.800Z,53.81
2023-03-06T13:35:39.564Z,53.58
2023-03-06T13:38:34.990Z,53.59
2023-03-06T13:41:30.703Z,53.24
2023-03-06T13:43:59.662Z,53.77
2023-03-06T13:46:30.384Z,53.24
2023-03-06T13:49:09.317Z,53.32
2023-03-06T13:51:42.114Z,53.60
2023-03-06T13:54:43.932Z,52.80
2023-03-06T13:57:10.538Z,53.64
2023-03-06T14:00:28.050Z,52.83
2023-03-06T14:03:05.226Z,53.89
2023-03-06T14:05:46.680Z,52.98
2023-03-06T14:08:22.239Z,53.82
2023-03-06T14:11:00.679Z,53.76
2023-03-06T14:13:41.813Z,53.72
2023-03-06T14:16:20.118Z,53.16
2023-03-06T14:18:49.375Z,53.07
2023-03-06T14:21:25.937Z,53.28
2023-03-06T14:24:00.969Z,53.39
2023-03-06T14:26:31.866Z,53.07
2023-03-06T14:29:00.563Z,53.06
2023-03-06T14:31:42.486Z,54.22
2023-03-06T14:34:23.997Z,53.86
2023-03-06T14:36:56.222Z,54.26
2023-03-06T14:39:37.135Z,54.09
2023-03-06T14:42:09.086Z,54.07
2023-03-06T14:44:35.693Z,53.00
2023-03-06T14:47:23.291Z,53.00
2023-03-06T14:50:24.835Z,53.40
2023-03-06T14:52:58.109Z,53.62
2023-03-06T14:55:27.223Z,53.80
2023-03-06T14:58:12.534Z,54.42
2023-03-06T15:00:46.222Z,54.10
2023-03-06T15:03:16.491Z,54.20
2023-03-06T15:05:45.727Z,55.27
2023-03-06T15:08:18.340Z,55.51
2023-03-06T15:10:59.616Z,56.12
2023-03-06T15:13:28.832Z,56.11
2023-03-06T15:16:07.762Z,55.94
2023-03-06T15:18:36.184Z,56.40
2023-03-06T15:21:08.515Z,56.68
2023-03-06T15:26:22.961Z,55.25
2023-03-06T15:29:10.362Z,55.65
2023-03-06T15:31:39.785Z,56.18
2023-03-06T15:34:06.324Z,55.59
2023-03-06T15:36:35.084Z,56.81
2023-03-06T15:39:01.941Z,56.54
2023-03-06T15:41:36.332Z,56.47
2023-03-06T15:44:14.582Z,56.09
2023-03-06T15:46:41.824Z,56.40
2023-03-06T15:49:16.640Z,57.18
2023-03-06T15:51:43.800Z,56.87
2023-03-06T15:54:12.539Z,57.24
2023-03-06T15:56:42.932Z,57.58
2023-03-06T15:59:18.243Z,57.74
2023-03-06T16:01:45.546Z,57.99
2023-03-06T16:04:12.177Z,58.28
2023-03-06T16:06:38.868Z,58.19
2023-03-06T16:09:05.948Z,58.38
2023-03-06T16:11:43.228Z,58.86
2023-03-06T16:14:21.374Z,58.72
2023-03-06T16:16:49.249Z,58.67
2023-03-06T16:19:29.266Z,58.89
2023-03-06T16:21:56.749Z,59.05
2023-03-06T16:24:23.415Z,58.40
2023-03-06T16:26:51.932Z,58.51
2023-03-06T16:29:19.621Z,58.99
2023-03-06T16:31:46.503Z,59.32
2023-03-06T16:34:13.622Z,59.09
2023-03-06T16:36:40.709Z,59.35
2023-03-06T16:39:13.506Z,59.49
2023-03-06T16:41:40.043Z,60.21
2023-03-06T16:44:07.838Z,59.66
2023-03-06T16:46:39.193Z,59.98
2023-03-06T16:49:05.997Z,60.26
2023-03-06T16:51:33.484Z,60.11
2023-03-06T16:54:00.168Z,60.19
2023-03-06T16:56:29.944Z,59.86
2023-03-06T16:58:56.482Z,59.60
2023-03-06T17:01:23.298Z,60.03
2023-03-06T17:03:49.933Z,59.99
2023-03-06T17:06:19.125Z,60.63
2023-03-06T17:08:47.074Z,60.39
2023-03-06T17:11:14.212Z,60.92
2023-03-06T17:13:41.359Z,61.26
2023-03-06T17:16:11.244Z,61.38
2023-03-06T17:18:37.926Z,60.77
2023-03-06T17:21:04.760Z,61.60
2023-03-06T17:23:31.440Z,61.11
2023-03-06T17:26:10.359Z,61.64
2023-03-06T17:28:37.999Z,61.00
2023-03-06T17:31:30.863Z,61.96
2023-03-06T17:34:00.533Z,62.18
2023-03-06T17:36:29.970Z,61.81
2023-03-06T17:38:58.368Z,61.96
2023-03-06T17:41:25.581Z,62.17
2023-03-06T17:43:54.924Z,61.92
2023-03-06T17:46:21.760Z,62.03
2023-03-06T17:48:48.367Z,62.30
2023-03-06T17:51:15.047Z,62.22
2023-03-06T17:53:41.839Z,62.84
2023-03-06T17:56:11.774Z,62.75
2023-03-06T17:58:38.440Z,62.86
2023-03-06T18:01:16.667Z,62.77
2023-03-06T18:03:48.695Z,63.10
2023-03-06T18:06:16.480Z,63.61
2023-03-06T18:08:43.123Z,64.14
2023-03-06T18:11:12.215Z,64.36
2023-03-06T18:13:41.998Z,64.77
2023-03-06T18:16:11.578Z,64.67
2023-03-06T18:18:38.577Z,64.83
2023-03-06T18:21:06.726Z,65.53
2023-03-06T18:23:33.768Z,65.14
2023-03-06T18:26:14.305Z,65.91
2023-03-06T18:28:44.422Z,65.93
2023-03-06T18:31:14.821Z,66.50
2023-03-06T18:33:41.522Z,65.98
2023-03-06T18:36:08.282Z,66.06
2023-03-06T18:38:35.121Z,66.87
2023-03-06T18:41:01.648Z,67.00
2023-03-06T18:43:28.187Z,67.20
2023-03-06T18:45:58.374Z,67.02
2023-03-06T18:48:24.989Z,66.99
2023-03-06T18:50:51.528Z,67.30
2023-03-06T18:53:18.677Z,67.32
2023-03-06T18:55:54.146Z,67.40
2023-03-06T18:58:21.824Z,66.93
2023-03-06T19:00:49.439Z,67.39
2023-03-06T19:03:16.513Z,67.38
2023-03-06T19:05:45.777Z,67.39
2023-03-06T19:08:12.371Z,67.41
2023-03-06T19:10:41.551Z,67.67
2023-03-06T19:13:10.081Z,67.69
2023-03-06T19:15:45.678Z,67.32
2023-03-06T19:18:15.743Z,67.31
2023-03-06T19:20:43.044Z,67.30
2023-03-06T19:23:09.938Z,67.53
2023-03-06T19:25:36.787Z,67.47
2023-03-06T19:28:03.796Z,67.47
2023-03-06T19:30:30.350Z,67.67
2023-03-06T19:32:57.104Z,67.16
2023-03-06T19:35:25.011Z,66.92
2023-03-06T19:37:52.344Z,66.50
2023-03-06T19:40:19.556Z,66.74
2023-03-06T19:42:46.529Z,66.22
2023-03-06T19:45:13.172Z,66.67
2023-03-06T19:47:39.770Z,67.39
2023-03-06T19:50:06.842Z,67.19
2023-03-06T19:52:36.563Z,66.50
2023-03-06T19:55:03.350Z,65.91
2023-03-06T19:57:29.942Z,65.65
2023-03-06T19:59:58.496Z,66.39
2023-03-06T20:02:27.210Z,67.75
2023-03-06T20:04:54.860Z,67.45
2023-03-06T20:07:21.626Z,67.13
2023-03-06T20:09:48.327Z,66.71
2023-03-06T20:12:15.714Z,66.63
2023-03-06T20:14:43.132Z,67.36
2023-03-06T20:17:09.784Z,66.64
2023-03-06T20:19:36.805Z,65.98
2023-03-06T20:22:03.484Z,65.23
2023-03-06T20:24:30.053Z,65.83
2023-03-06T20:26:58.427Z,65.56
2023-03-06T20:29:28.119Z,66.05
2023-03-06T20:31:56.226Z,65.47
2023-03-06T20:34:23.653Z,65.95
2023-03-06T20:36:50.939Z,65.93
2023-03-06T20:39:19.281Z,65.59
2023-03-06T20:41:46.809Z,65.63
2023-03-06T20:44:17.187Z,65.21
2023-03-06T20:46:44.475Z,65.31
2023-03-06T20:49:12.718Z,64.92
2023-03-06T20:51:40.426Z,65.29
2023-03-06T20:54:08.647Z,66.23
2023-03-06T20:56:37.081Z,66.62
2023-03-06T20:59:03.658Z,67.26
2023-03-06T21:01:33.666Z,67.53
2023-03-06T21:04:01.520Z,68.34
2023-03-06T21:06:29.182Z,67.81
2023-03-06T21:08:56.786Z,66.99
2023-03-06T21:11:23.577Z,66.35
2023-03-06T21:13:50.190Z,67.04
2023-03-06T21:16:19.155Z,66.78
2023-03-06T21:18:46.071Z,66.89
2023-03-06T21:21:15.222Z,66.42
2023-03-06T21:23:42.522Z,65.32
2023-03-06T21:26:13.188Z,65.38
2023-03-06T21:28:40.045Z,65.42
2023-03-06T21:31:09.203Z,65.72
2023-03-06T21:33:36.459Z,66.14
2023-03-06T21:36:03.631Z,66.21
2023-03-06T21:38:30.432Z,66.14
2023-03-06T21:40:57.008Z,66.21
2023-03-06T21:43:23.574Z,66.25
2023-03-06T21:45:52.725Z,66.01
2023-03-06T21:48:19.358Z,66.87
2023-03-06T21:50:45.927Z,66.31
2023-03-06T21:53:12.508Z,66.35
2023-03-06T21:55:40.796Z,66.91
2023-03-06T21:58:08.617Z,66.00
2023-03-06T22:00:36.487Z,65.02
2023-03-06T22:03:04.732Z,64.30
2023-03-06T22:05:34.189Z,63.11
2023-03-06T22:08:00.888Z,62.31
2023-03-06T22:10:27.480Z,62.57
2023-03-06T22:12:54.027Z,62.36
2023-03-06T22:15:21.899Z,60.99
2023-03-06T22:17:48.680Z,59.59
2023-03-06T22:20:15.497Z,59.48
2023-03-06T22:22:42.344Z,59.94
2023-03-06T22:25:09.287Z,60.05
2023-03-06T22:27:35.844Z,60.16
2023-03-06T22:30:02.534Z,59.56
2023-03-06T22:32:29.122Z,59.65
2023-03-06T22:34:55.715Z,59.85
2023-03-06T22:37:22.279Z,59.34
2023-03-06T22:39:48.837Z,59.48
2023-03-06T22:42:15.422Z,59.66
2023-03-06T22:44:42.003Z,59.50
2023-03-06T22:47:08.504Z,59.30
2023-03-06T22:49:35.015Z,59.27
2023-03-06T22:52:01.555Z,59.03
2023-03-06T22:54:30.204Z,59.00
2023-03-06T22:56:56.723Z,58.98
2023-03-06T22:59:23.245Z,58.93
2023-03-06T23:01:49.780Z,58.74
2023-03-06T23:04:16.438Z,58.85
2023-03-06T23:06:43.511Z,58.93
2023-03-06T23:09:20.575Z,58.90
2023-03-06T23:11:48.191Z,58.55
2023-03-06T23:14:16.597Z,58.18
2023-03-06T23:16:43.865Z,58.17
2023-03-06T23:19:10.429Z,58.36
2023-03-06T23:21:37.066Z,58.29
2023-03-06T23:24:04.409Z,58.11
2023-03-06T23:26:31.962Z,57.95
2023-03-06T23:28:58.558Z,58.00
2023-03-06T23:31:28.862Z,57.49
2023-03-06T23:34:02.530Z,57.90
2023-03-06T23:36:30.306Z,57.85
2023-03-06T23:38:57.616Z,57.86
2023-03-06T23:41:24.589Z,58.29
2023-03-06T23:43:53.487Z,58.11
2023-03-06T23:46:21.312Z,57.87
2023-03-06T23:48:47.890Z,58.16
2023-03-06T23:51:19.828Z,58.04
2023-03-06T23:53:47.597Z,58.32
2023-03-06T23:56:14.677Z,58.01
2023-03-06T23:58:41.313Z,57.83
